sensor_id;sensor_type;location;lat;lon;timestamp;pressure;altitude;pressure_sealevel;temperature;humidity
73101;BME280;61288;53.446;-2.266;2023-07-24T00:01:23;102734.47;;;10.20;100.00
73101;BME280;61288;53.446;-2.266;2023-07-24T00:03:49;102733.59;;;10.21;100.00
73101;BME280;61288;53.446;-2.266;2023-07-24T00:06:17;102748.28;;;10.19;100.00
73101;BME280;61288;53.446;-2.266;2023-07-24T00:08:43;102763.00;;;10.19;100.00
73101;BME280;61288;53.446;-2.266;2023-07-24T00:11:08;102754.34;;;10.18;100.00
73101;BME280;61288;53.446;-2.266;2023-07-24T00:13:34;102759.53;;;10.18;100.00
73101;BME280;61288;53.446;-2.266;2023-07-24T00:15:59;102761.25;;;10.16;100.00
73101;BME280;61288;53.446;-2.266;2023-07-24T00:18:25;102771.63;;;10.16;100.00
73101;BME280;61288;53.446;-2.266;2023-07-24T00:20:50;102777.69;;;10.15;100.00
73101;BME280;61288;53.446;-2.266;2023-07-24T00:23:16;102773.38;;;10.16;100.00
73101;BME280;61288;53.446;-2.266;2023-07-24T00:25:41;102796.69;;;10.16;100.00
73101;BME280;61288;53.446;-2.266;2023-07-24T00:28:07;102790.66;;;10.12;100.00
73101;BME280;61288;53.446;-2.266;2023-07-24T00:30:32;102782.03;;;10.10;100.00
73101;BME280;61288;53.446;-2.266;2023-07-24T00:32:58;102775.13;;;10.07;100.00
73101;BME280;61288;53.446;-2.266;2023-07-24T00:35:23;102779.44;;;10.05;100.00
73101;BME280;61288;53.446;-2.266;2023-07-24T00:37:49;102787.22;;;10.05;100.00
73101;BME280;61288;53.446;-2.266;2023-07-24T00:40:14;102794.13;;;10.03;100.00
73101;BME280;61288;53.446;-2.266;2023-07-24T00:42:40;102806.22;;;10.06;100.00
73101;BME280;61288;53.446;-2.266;2023-07-24T00:45:05;102807.94;;;10.02;100.00
73101;BME280;61288;53.446;-2.266;2023-07-24T00:47:31;102812.25;;;10.03;100.00
73101;BME280;61288;53.446;-2.266;2023-07-24T00:49:57;102825.19;;;10.06;100.00
73101;BME280;61288;53.446;-2.266;2023-07-24T00:52:23;102839.88;;;10.07;100.00
73101;BME280;61288;53.446;-2.266;2023-07-24T00:54:48;102856.28;;;10.08;100.00
73101;BME280;61288;53.446;-2.266;2023-07-24T00:57:14;102867.53;;;10.07;100.00
73101;BME280;61288;53.446;-2.266;2023-07-24T00:59:40;102868.38;;;10.09;100.00
73101;BME280;61288;53.446;-2.266;2023-07-24T01:02:07;102875.28;;;10.11;100.00
73101;BME280;61288;53.446;-2.266;2023-07-24T01:04:33;102890.81;;;10.10;100.00
73101;BME280;61288;53.446;-2.266;2023-07-24T01:06:59;102890.81;;;10.08;100.00
73101;BME280;61288;53.446;-2.266;2023-07-24T01:09:25;102891.69;;;10.07;100.00
73101;BME280;61288;53.446;-2.266;2023-07-24T01:11:56;102891.69;;;10.07;100.00
73101;BME280;61288;53.446;-2.266;2023-07-24T01:17:07;102914.13;;;10.05;100.00
73101;BME280;61288;53.446;-2.266;2023-07-24T01:19:44;102911.53;;;10.05;100.00
73101;BME280;61288;53.446;-2.266;2023-07-24T01:25:18;102932.25;;;10.10;100.00
73101;BME280;61288;53.446;-2.266;2023-07-24T01:27:48;102956.44;;;10.12;100.00
73101;BME280;61288;53.446;-2.266;2023-07-24T01:30:17;102976.28;;;10.16;100.00
73101;BME280;61288;53.446;-2.266;2023-07-24T01:32:43;102997.88;;;10.17;100.00
73101;BME280;61288;53.446;-2.266;2023-07-24T01:35:09;103019.47;;;10.22;100.00
73101;BME280;61288;53.446;-2.266;2023-07-24T01:37:35;103026.38;;;10.23;100.00
73101;BME280;61288;53.446;-2.266;2023-07-24T01:40:03;103037.59;;;10.23;100.00
73101;BME280;61288;53.446;-2.266;2023-07-24T01:42:29;103042.78;;;10.25;100.00
73101;BME280;61288;53.446;-2.266;2023-07-24T01:44:55;103035.88;;;10.27;100.00
73101;BME280;61288;53.446;-2.266;2023-07-24T01:47:21;103046.22;;;10.27;100.00
73101;BME280;61288;53.446;-2.266;2023-07-24T01:49:47;103053.13;;;10.25;100.00
73101;BME280;61288;53.446;-2.266;2023-07-24T01:52:15;103068.66;;;10.26;100.00
73101;BME280;61288;53.446;-2.266;2023-07-24T01:54:41;103067.81;;;10.29;100.00
73101;BME280;61288;53.446;-2.266;2023-07-24T01:57:06;103085.97;;;10.31;100.00
73101;BME280;61288;53.446;-2.266;2023-07-24T01:59:32;103113.59;;;10.30;100.00
73101;BME280;61288;53.446;-2.266;2023-07-24T02:01:57;103142.97;;;10.31;100.00
73101;BME280;61288;53.446;-2.266;2023-07-24T02:04:23;103162.84;;;10.30;100.00
73101;BME280;61288;53.446;-2.266;2023-07-24T02:06:49;103188.75;;;10.32;100.00
73101;BME280;61288;53.446;-2.266;2023-07-24T02:09:15;103269.09;;;10.35;100.00
73101;BME280;61288;53.446;-2.266;2023-07-24T02:11:41;103339.06;;;10.36;100.00
73101;BME280;61288;53.446;-2.266;2023-07-24T02:14:07;103409.06;;;10.38;100.00
73101;BME280;61288;53.446;-2.266;2023-07-24T02:16:32;103520.53;;;10.38;100.00
73101;BME280;61288;53.446;-2.266;2023-07-24T02:18:58;103765.97;;;10.42;100.00
73101;BME280;61288;53.446;-2.266;2023-07-24T02:21:23;104058.06;;;10.43;100.00
73101;BME280;61288;53.446;-2.266;2023-07-24T02:23:49;104539.50;;;10.46;100.00
73101;BME280;61288;53.446;-2.266;2023-07-24T02:26:14;104939.75;;;10.48;100.00
73101;BME280;61288;53.446;-2.266;2023-07-24T02:28:40;105673.72;;;10.48;100.00
73101;BME280;61288;53.446;-2.266;2023-07-24T02:31:05;105421.34;;;10.50;100.00
73101;BME280;61288;53.446;-2.266;2023-07-24T02:33:31;105357.44;;;10.52;100.00
73101;BME280;61288;53.446;-2.266;2023-07-24T02:35:56;105436.97;;;10.52;100.00
73101;BME280;61288;53.446;-2.266;2023-07-24T02:38:23;105697.31;;;10.54;100.00
73101;BME280;61288;53.446;-2.266;2023-07-24T02:40:48;105987.91;;;10.55;100.00
73101;BME280;61288;53.446;-2.266;2023-07-24T02:43:14;106580.34;;;10.56;100.00
73101;BME280;61288;53.446;-2.266;2023-07-24T02:45:40;110300.38;;;10.58;100.00
73101;BME280;61288;53.446;-2.266;2023-07-24T02:48:06;111591.56;;;10.59;100.00
73101;BME280;61288;53.446;-2.266;2023-07-24T02:50:33;112564.25;;;10.60;100.00
73101;BME280;61288;53.446;-2.266;2023-07-24T02:52:58;113517.63;;;10.62;100.00
73101;BME280;61288;53.446;-2.266;2023-07-24T02:55:24;114216.22;;;10.63;100.00
73101;BME280;61288;53.446;-2.266;2023-07-24T02:57:50;115036.53;;;10.65;100.00
73101;BME280;61288;53.446;-2.266;2023-07-24T03:00:15;116763.25;;;10.64;100.00
73101;BME280;61288;53.446;-2.266;2023-07-24T03:02:41;117892.81;;;10.65;100.00
73101;BME280;61288;53.446;-2.266;2023-07-24T03:05:07;118545.06;;;10.65;100.00
73101;BME280;61288;53.446;-2.266;2023-07-24T03:07:32;119289.88;;;10.66;100.00
73101;BME280;61288;53.446;-2.266;2023-07-24T03:09:58;119990.19;;;10.66;100.00
73101;BME280;61288;53.446;-2.266;2023-07-24T03:12:23;120628.56;;;10.68;100.00
73101;BME280;61288;53.446;-2.266;2023-07-24T03:14:49;121266.06;;;10.69;100.00
73101;BME280;61288;53.446;-2.266;2023-07-24T03:17:14;121816.09;;;10.71;100.00
73101;BME280;61288;53.446;-2.266;2023-07-24T03:19:41;122390.81;;;10.70;100.00
73101;BME280;61288;53.446;-2.266;2023-07-24T03:22:06;123136.03;;;10.70;100.00
73101;BME280;61288;53.446;-2.266;2023-07-24T03:24:33;123493.03;;;10.70;100.00
73101;BME280;61288;53.446;-2.266;2023-07-24T03:26:59;123665.03;;;10.70;100.00
73101;BME280;61288;53.446;-2.266;2023-07-24T03:29:26;123903.75;;;10.69;100.00
73101;BME280;61288;53.446;-2.266;2023-07-24T03:31:51;123861.50;;;10.71;100.00
73101;BME280;61288;53.446;-2.266;2023-07-24T03:34:17;124104.44;;;10.69;100.00
73101;BME280;61288;53.446;-2.266;2023-07-24T03:36:42;124782.16;;;10.69;100.00
73101;BME280;61288;53.446;-2.266;2023-07-24T03:39:09;125118.94;;;10.68;100.00
73101;BME280;61288;53.446;-2.266;2023-07-24T03:41:35;125339.53;;;10.68;100.00
73101;BME280;61288;53.446;-2.266;2023-07-24T03:44:01;125407.81;;;10.67;100.00
73101;BME280;61288;53.446;-2.266;2023-07-24T03:46:26;125414.03;;;10.65;100.00
73101;BME280;61288;53.446;-2.266;2023-07-24T03:48:51;125224.75;;;10.65;100.00
73101;BME280;61288;53.446;-2.266;2023-07-24T03:51:17;125068.84;;;10.64;100.00
73101;BME280;61288;53.446;-2.266;2023-07-24T03:53:43;125062.09;;;10.65;100.00
73101;BME280;61288;53.446;-2.266;2023-07-24T03:56:08;125081.38;;;10.65;100.00
73101;BME280;61288;53.446;-2.266;2023-07-24T03:58:34;125103.81;;;10.65;100.00
73101;BME280;61288;53.446;-2.266;2023-07-24T04:00:59;125114.75;;;10.64;100.00
73101;BME280;61288;53.446;-2.266;2023-07-24T04:03:26;124979.19;;;10.64;100.00
73101;BME280;61288;53.446;-2.266;2023-07-24T04:05:51;124910.34;;;10.63;100.00
73101;BME280;61288;53.446;-2.266;2023-07-24T04:08:20;124686.19;;;10.63;100.00
73101;BME280;61288;53.446;-2.266;2023-07-24T04:10:45;124324.94;;;10.61;100.00
73101;BME280;61288;53.446;-2.266;2023-07-24T04:13:11;123858.47;;;10.61;100.00
73101;BME280;61288;53.446;-2.266;2023-07-24T04:15:36;123269.56;;;10.61;100.00
73101;BME280;61288;53.446;-2.266;2023-07-24T04:18:02;122716.75;;;10.60;100.00
73101;BME280;61288;53.446;-2.266;2023-07-24T04:20:27;122275.97;;;10.61;100.00
73101;BME280;61288;53.446;-2.266;2023-07-24T04:22:53;121767.03;;;10.60;100.00
73101;BME280;61288;53.446;-2.266;2023-07-24T04:25:18;121022.19;;;10.60;100.00
73101;BME280;61288;53.446;-2.266;2023-07-24T04:27:44;120385.84;;;10.60;100.00
73101;BME280;61288;53.446;-2.266;2023-07-24T04:30:10;119892.81;;;10.59;100.00
73101;BME280;61288;53.446;-2.266;2023-07-24T04:32:35;119486.72;;;10.59;100.00
73101;BME280;61288;53.446;-2.266;2023-07-24T04:35:01;118954.72;;;10.59;100.00
73101;BME280;61288;53.446;-2.266;2023-07-24T04:37:27;118693.84;;;10.60;100.00
73101;BME280;61288;53.446;-2.266;2023-07-24T04:39:52;118401.38;;;10.59;100.00
73101;BME280;61288;53.446;-2.266;2023-07-24T04:42:18;118201.41;;;10.61;100.00
73101;BME280;61288;53.446;-2.266;2023-07-24T04:44:43;117744.03;;;10.60;100.00
73101;BME280;61288;53.446;-2.266;2023-07-24T04:47:09;117142.41;;;10.61;100.00
73101;BME280;61288;53.446;-2.266;2023-07-24T04:49:34;116516.44;;;10.57;100.00
73101;BME280;61288;53.446;-2.266;2023-07-24T04:52:00;115893.19;;;10.58;100.00
73101;BME280;61288;53.446;-2.266;2023-07-24T04:54:25;115587.31;;;10.58;100.00
73101;BME280;61288;53.446;-2.266;2023-07-24T04:56:51;115276.19;;;10.59;100.00
73101;BME280;61288;53.446;-2.266;2023-07-24T04:59:16;115272.94;;;10.60;100.00
73101;BME280;61288;53.446;-2.266;2023-07-24T05:01:42;115423.41;;;10.62;100.00
73101;BME280;61288;53.446;-2.266;2023-07-24T05:04:14;115500.47;;;10.62;100.00
73101;BME280;61288;53.446;-2.266;2023-07-24T05:06:39;115664.59;;;10.63;100.00
73101;BME280;61288;53.446;-2.266;2023-07-24T05:09:04;115902.56;;;10.65;100.00
73101;BME280;61288;53.446;-2.266;2023-07-24T05:11:30;116113.59;;;10.67;100.00
73101;BME280;61288;53.446;-2.266;2023-07-24T05:13:56;116379.88;;;10.67;100.00
73101;BME280;61288;53.446;-2.266;2023-07-24T05:16:21;116695.97;;;10.69;100.00
73101;BME280;61288;53.446;-2.266;2023-07-24T05:18:47;116941.84;;;10.72;100.00
73101;BME280;61288;53.446;-2.266;2023-07-24T05:21:12;117156.84;;;10.71;100.00
73101;BME280;61288;53.446;-2.266;2023-07-24T05:23:38;117292.16;;;10.71;100.00
73101;BME280;61288;53.446;-2.266;2023-07-24T05:26:04;117340.59;;;10.71;100.00
73101;BME280;61288;53.446;-2.266;2023-07-24T05:28:31;117381.91;;;10.69;100.00
73101;BME280;61288;53.446;-2.266;2023-07-24T05:31:04;117301.88;;;10.68;100.00
73101;BME280;61288;53.446;-2.266;2023-07-24T05:33:31;117206.22;;;10.67;100.00
73101;BME280;61288;53.446;-2.266;2023-07-24T05:36:01;117322.69;;;10.68;100.00
73101;BME280;61288;53.446;-2.266;2023-07-24T05:38:26;117426.75;;;10.68;100.00
73101;BME280;61288;53.446;-2.266;2023-07-24T05:41:00;117452.16;;;10.69;100.00
73101;BME280;61288;53.446;-2.266;2023-07-24T05:43:27;117543.84;;;10.68;100.00
73101;BME280;61288;53.446;-2.266;2023-07-24T05:45:54;117456.28;;;10.64;100.00
73101;BME280;61288;53.446;-2.266;2023-07-24T05:48:20;117294.00;;;10.64;100.00
73101;BME280;61288;53.446;-2.266;2023-07-24T05:50:46;116972.31;;;10.60;100.00
73101;BME280;61288;53.446;-2.266;2023-07-24T05:53:12;116739.78;;;10.60;100.00
73101;BME280;61288;53.446;-2.266;2023-07-24T05:55:38;116790.88;;;10.59;100.00
73101;BME280;61288;53.446;-2.266;2023-07-24T05:58:03;116734.59;;;10.60;100.00
73101;BME280;61288;53.446;-2.266;2023-07-24T06:00:29;116977.88;;;10.62;100.00
73101;BME280;61288;53.446;-2.266;2023-07-24T06:02:54;117348.00;;;10.65;100.00
73101;BME280;61288;53.446;-2.266;2023-07-24T06:05:20;117573.38;;;10.64;100.00
73101;BME280;61288;53.446;-2.266;2023-07-24T06:07:49;117624.06;;;10.62;100.00
73101;BME280;61288;53.446;-2.266;2023-07-24T06:10:14;117386.97;;;10.61;100.00
73101;BME280;61288;53.446;-2.266;2023-07-24T06:12:40;116575.59;;;10.54;100.00
73101;BME280;61288;53.446;-2.266;2023-07-24T06:15:06;115344.25;;;10.52;100.00
73101;BME280;61288;53.446;-2.266;2023-07-24T06:17:32;114947.41;;;10.52;100.00
73101;BME280;61288;53.446;-2.266;2023-07-24T06:19:59;115006.19;;;10.56;100.00
73101;BME280;61288;53.446;-2.266;2023-07-24T06:22:24;115039.97;;;10.56;100.00
73101;BME280;61288;53.446;-2.266;2023-07-24T06:24:50;115193.97;;;10.59;100.00
73101;BME280;61288;53.446;-2.266;2023-07-24T06:27:16;115316.50;;;10.61;100.00
73101;BME280;61288;53.446;-2.266;2023-07-24T06:29:42;115166.94;;;10.63;100.00
73101;BME280;61288;53.446;-2.266;2023-07-24T06:32:08;115171.47;;;10.64;100.00
73101;BME280;61288;53.446;-2.266;2023-07-24T06:34:34;115098.25;;;10.66;100.00
73101;BME280;61288;53.446;-2.266;2023-07-24T06:37:00;115005.88;;;10.68;100.00
73101;BME280;61288;53.446;-2.266;2023-07-24T06:39:26;115109.16;;;10.74;100.00
73101;BME280;61288;53.446;-2.266;2023-07-24T06:41:54;115613.06;;;10.79;100.00
73101;BME280;61288;53.446;-2.266;2023-07-24T06:44:20;115777.56;;;10.82;100.00
73101;BME280;61288;53.446;-2.266;2023-07-24T06:46:45;115465.97;;;10.85;100.00
73101;BME280;61288;53.446;-2.266;2023-07-24T06:49:11;115264.31;;;10.87;100.00
73101;BME280;61288;53.446;-2.266;2023-07-24T06:51:36;115092.44;;;10.95;100.00
73101;BME280;61288;53.446;-2.266;2023-07-24T06:54:04;115002.94;;;10.99;100.00
73101;BME280;61288;53.446;-2.266;2023-07-24T06:56:30;114678.28;;;11.02;100.00
73101;BME280;61288;53.446;-2.266;2023-07-24T06:58:55;114293.09;;;11.06;100.00
73101;BME280;61288;53.446;-2.266;2023-07-24T07:01:21;113801.22;;;11.10;100.00
73101;BME280;61288;53.446;-2.266;2023-07-24T07:03:46;113395.91;;;11.13;100.00
73101;BME280;61288;53.446;-2.266;2023-07-24T07:06:14;113002.88;;;11.18;100.00
73101;BME280;61288;53.446;-2.266;2023-07-24T07:08:40;112621.66;;;11.20;100.00
73101;BME280;61288;53.446;-2.266;2023-07-24T07:11:05;111546.78;;;11.21;100.00
73101;BME280;61288;53.446;-2.266;2023-07-24T07:13:31;110732.53;;;11.25;100.00
73101;BME280;61288;53.446;-2.266;2023-07-24T07:15:56;109838.66;;;11.30;100.00
73101;BME280;61288;53.446;-2.266;2023-07-24T07:18:22;109493.50;;;11.36;100.00
73101;BME280;61288;53.446;-2.266;2023-07-24T07:20:49;109314.06;;;11.45;100.00
73101;BME280;61288;53.446;-2.266;2023-07-24T07:23:16;108189.41;;;11.47;100.00
73101;BME280;61288;53.446;-2.266;2023-07-24T07:25:43;106472.38;;;11.46;100.00
73101;BME280;61288;53.446;-2.266;2023-07-24T07:28:11;105567.41;;;11.45;100.00
73101;BME280;61288;53.446;-2.266;2023-07-24T07:30:36;104646.19;;;11.46;100.00
73101;BME280;61288;53.446;-2.266;2023-07-24T07:33:02;103983.06;;;11.42;100.00
73101;BME280;61288;53.446;-2.266;2023-07-24T07:35:27;103761.53;;;11.48;100.00
73101;BME280;61288;53.446;-2.266;2023-07-24T07:37:53;103622.16;;;11.50;100.00
73101;BME280;61288;53.446;-2.266;2023-07-24T07:40:19;103507.06;;;11.48;100.00
73101;BME280;61288;53.446;-2.266;2023-07-24T07:42:47;103346.94;;;11.50;100.00
73101;BME280;61288;53.446;-2.266;2023-07-24T07:45:12;103302.78;;;11.54;100.00
73101;BME280;61288;53.446;-2.266;2023-07-24T07:47:38;103288.94;;;11.59;100.00
73101;BME280;61288;53.446;-2.266;2023-07-24T07:50:04;103194.56;;;11.58;100.00
73101;BME280;61288;53.446;-2.266;2023-07-24T07:52:29;103159.09;;;11.59;100.00
73101;BME280;61288;53.446;-2.266;2023-07-24T07:54:55;103184.19;;;11.61;100.00
73101;BME280;61288;53.446;-2.266;2023-07-24T07:57:20;103154.75;;;11.65;100.00
73101;BME280;61288;53.446;-2.266;2023-07-24T07:59:46;103059.47;;;11.69;100.00
73101;BME280;61288;53.446;-2.266;2023-07-24T08:02:11;103017.03;;;11.72;100.00
73101;BME280;61288;53.446;-2.266;2023-07-24T08:04:37;102927.06;;;11.67;100.00
73101;BME280;61288;53.446;-2.266;2023-07-24T08:07:03;102856.06;;;11.67;100.00
73101;BME280;61288;53.446;-2.266;2023-07-24T08:09:28;102782.53;;;11.63;100.00
73101;BME280;61288;53.446;-2.266;2023-07-24T08:11:55;102736.69;;;11.59;100.00
73101;BME280;61288;53.446;-2.266;2023-07-24T08:14:21;102695.19;;;11.58;100.00
73101;BME280;61288;53.446;-2.266;2023-07-24T08:16:49;102627.69;;;11.56;100.00
73101;BME280;61288;53.446;-2.266;2023-07-24T08:19:15;102589.66;;;11.52;100.00
73101;BME280;61288;53.446;-2.266;2023-07-24T08:21:41;102529.13;;;11.50;100.00
73101;BME280;61288;53.446;-2.266;2023-07-24T08:24:07;102453.03;;;11.48;100.00
73101;BME280;61288;53.446;-2.266;2023-07-24T08:26:33;102420.09;;;11.51;100.00
73101;BME280;61288;53.446;-2.266;2023-07-24T08:28:59;102371.50;;;11.58;100.00
73101;BME280;61288;53.446;-2.266;2023-07-24T08:31:24;102299.59;;;11.63;100.00
73101;BME280;61288;53.446;-2.266;2023-07-24T08:33:50;102261.47;;;11.65;100.00
73101;BME280;61288;53.446;-2.266;2023-07-24T08:36:15;102217.16;;;11.73;100.00
73101;BME280;61288;53.446;-2.266;2023-07-24T08:38:41;102178.91;;;11.81;100.00
73101;BME280;61288;53.446;-2.266;2023-07-24T08:41:09;102140.66;;;11.88;100.00
73101;BME280;61288;53.446;-2.266;2023-07-24T08:43:36;102085.13;;;11.94;100.00
73101;BME280;61288;53.446;-2.266;2023-07-24T08:46:03;102042.63;;;11.96;100.00
73101;BME280;61288;53.446;-2.266;2023-07-24T08:48:31;102016.56;;;12.01;100.00
73101;BME280;61288;53.446;-2.266;2023-07-24T08:51:02;101980.97;;;12.05;100.00
73101;BME280;61288;53.446;-2.266;2023-07-24T08:53:29;101949.81;;;12.03;100.00
73101;BME280;61288;53.446;-2.266;2023-07-24T08:55:56;101904.84;;;12.01;100.00
73101;BME280;61288;53.446;-2.266;2023-07-24T08:58:21;101858.31;;;11.93;100.00
73101;BME280;61288;53.446;-2.266;2023-07-24T09:00:47;101824.56;;;11.92;100.00
73101;BME280;61288;53.446;-2.266;2023-07-24T09:03:13;101788.84;;;12.02;100.00
73101;BME280;61288;53.446;-2.266;2023-07-24T09:05:38;101762.66;;;12.08;100.00
73101;BME280;61288;53.446;-2.266;2023-07-24T09:08:04;101714.81;;;12.15;100.00
73101;BME280;61288;53.446;-2.266;2023-07-24T09:10:29;101682.75;;;12.16;100.00
73101;BME280;61288;53.446;-2.266;2023-07-24T09:12:55;101653.91;;;12.24;100.00
73101;BME280;61288;53.446;-2.266;2023-07-24T09:15:21;101621.81;;;12.26;100.00
73101;BME280;61288;53.446;-2.266;2023-07-24T09:17:50;101575.81;;;12.28;100.00
73101;BME280;61288;53.446;-2.266;2023-07-24T09:20:17;101551.69;;;12.25;100.00
73101;BME280;61288;53.446;-2.266;2023-07-24T09:22:53;101521.28;;;12.27;100.00
73101;BME280;61288;53.446;-2.266;2023-07-24T09:25:32;101490.78;;;12.32;100.00
73101;BME280;61288;53.446;-2.266;2023-07-24T09:27:58;101466.97;;;12.45;100.00
73101;BME280;61288;53.446;-2.266;2023-07-24T09:30:24;101450.94;;;12.57;100.00
73101;BME280;61288;53.446;-2.266;2023-07-24T09:32:54;101421.75;;;12.73;100.00
73101;BME280;61288;53.446;-2.266;2023-07-24T09:35:21;101421.16;;;12.88;100.00
73101;BME280;61288;53.446;-2.266;2023-07-24T09:38:02;101408.31;;;13.06;100.00
73101;BME280;61288;53.446;-2.266;2023-07-24T09:40:28;101410.94;;;13.28;100.00
73101;BME280;61288;53.446;-2.266;2023-07-24T09:42:53;101385.94;;;13.46;100.00
73101;BME280;61288;53.446;-2.266;2023-07-24T09:45:18;101378.56;;;13.56;100.00
73101;BME280;61288;53.446;-2.266;2023-07-24T09:47:44;101361.53;;;13.69;100.00
73101;BME280;61288;53.446;-2.266;2023-07-24T09:50:10;101336.00;;;13.78;100.00
73101;BME280;61288;53.446;-2.266;2023-07-24T09:52:39;101325.09;;;13.89;100.00
73101;BME280;61288;53.446;-2.266;2023-07-24T09:55:11;101312.72;;;13.94;100.00
73101;BME280;61288;53.446;-2.266;2023-07-24T09:57:37;101295.03;;;13.81;100.00
73101;BME280;61288;53.446;-2.266;2023-07-24T10:00:03;101280.78;;;13.69;100.00
73101;BME280;61288;53.446;-2.266;2023-07-24T10:02:29;101265.84;;;13.54;100.00
73101;BME280;61288;53.446;-2.266;2023-07-24T10:04:55;101276.59;;;13.46;100.00
73101;BME280;61288;53.446;-2.266;2023-07-24T10:07:22;101309.88;;;13.38;100.00
73101;BME280;61288;53.446;-2.266;2023-07-24T10:09:49;101329.28;;;13.31;100.00
73101;BME280;61288;53.446;-2.266;2023-07-24T10:12:19;101344.09;;;13.28;100.00
73101;BME280;61288;53.446;-2.266;2023-07-24T10:14:48;101363.09;;;13.31;100.00
73101;BME280;61288;53.446;-2.266;2023-07-24T10:17:14;101372.47;;;13.35;100.00
73101;BME280;61288;53.446;-2.266;2023-07-24T10:19:43;101388.09;;;13.35;100.00
73101;BME280;61288;53.446;-2.266;2023-07-24T10:22:19;101376.06;;;13.32;100.00
73101;BME280;61288;53.446;-2.266;2023-07-24T10:24:46;101377.75;;;13.33;100.00
73101;BME280;61288;53.446;-2.266;2023-07-24T10:27:13;101363.34;;;13.47;100.00
73101;BME280;61288;53.446;-2.266;2023-07-24T10:29:38;101345.00;;;13.50;100.00
73101;BME280;61288;53.446;-2.266;2023-07-24T10:32:16;101317.41;;;13.46;100.00
73101;BME280;61288;53.446;-2.266;2023-07-24T10:34:42;101330.50;;;13.44;100.00
73101;BME280;61288;53.446;-2.266;2023-07-24T10:37:08;101342.94;;;13.36;100.00
73101;BME280;61288;53.446;-2.266;2023-07-24T10:39:41;101341.38;;;13.32;100.00
73101;BME280;61288;53.446;-2.266;2023-07-24T10:42:10;101341.59;;;13.27;100.00
73101;BME280;61288;53.446;-2.266;2023-07-24T10:44:36;101341.75;;;13.22;100.00
73101;BME280;61288;53.446;-2.266;2023-07-24T10:47:02;101335.78;;;13.20;100.00
73101;BME280;61288;53.446;-2.266;2023-07-24T10:49:28;101342.84;;;13.17;100.00
73101;BME280;61288;53.446;-2.266;2023-07-24T10:51:58;101341.16;;;13.15;100.00
73101;BME280;61288;53.446;-2.266;2023-07-24T10:54:23;101337.84;;;13.12;100.00
73101;BME280;61288;53.446;-2.266;2023-07-24T10:56:59;101337.78;;;13.13;100.00
73101;BME280;61288;53.446;-2.266;2023-07-24T10:59:38;101323.94;;;13.13;100.00
73101;BME280;61288;53.446;-2.266;2023-07-24T11:02:04;101323.72;;;13.18;100.00
73101;BME280;61288;53.446;-2.266;2023-07-24T11:04:31;101328.75;;;13.22;100.00
73101;BME280;61288;53.446;-2.266;2023-07-24T11:07:00;101338.84;;;13.30;100.00
73101;BME280;61288;53.446;-2.266;2023-07-24T11:09:37;101321.63;;;13.48;100.00
73101;BME280;61288;53.446;-2.266;2023-07-24T11:12:14;101328.00;;;13.62;100.00
73101;BME280;61288;53.446;-2.266;2023-07-24T11:14:47;101326.75;;;13.70;100.00
73101;BME280;61288;53.446;-2.266;2023-07-24T11:17:14;101318.47;;;13.81;100.00
73101;BME280;61288;53.446;-2.266;2023-07-24T11:19:39;101307.97;;;13.83;100.00
73101;BME280;61288;53.446;-2.266;2023-07-24T11:22:05;101300.75;;;13.90;100.00
73101;BME280;61288;53.446;-2.266;2023-07-24T11:24:31;101294.66;;;13.89;100.00
73101;BME280;61288;53.446;-2.266;2023-07-24T11:26:57;101302.22;;;13.95;100.00
73101;BME280;61288;53.446;-2.266;2023-07-24T11:29:23;101311.06;;;13.91;100.00
73101;BME280;61288;53.446;-2.266;2023-07-24T11:31:55;101312.00;;;13.90;100.00
73101;BME280;61288;53.446;-2.266;2023-07-24T11:34:22;101306.91;;;13.87;100.00
73101;BME280;61288;53.446;-2.266;2023-07-24T11:36:49;101313.81;;;13.88;100.00
73101;BME280;61288;53.446;-2.266;2023-07-24T11:39:24;101304.13;;;13.92;100.00
73101;BME280;61288;53.446;-2.266;2023-07-24T11:41:51;101311.78;;;13.95;100.00
73101;BME280;61288;53.446;-2.266;2023-07-24T11:44:25;101311.59;;;13.99;100.00
73101;BME280;61288;53.446;-2.266;2023-07-24T11:46:50;101313.19;;;14.02;100.00
73101;BME280;61288;53.446;-2.266;2023-07-24T11:49:19;101313.06;;;14.05;100.00
73101;BME280;61288;53.446;-2.266;2023-07-24T11:51:44;101299.06;;;14.08;100.00
73101;BME280;61288;53.446;-2.266;2023-07-24T11:54:11;101278.94;;;14.11;100.00
73101;BME280;61288;53.446;-2.266;2023-07-24T11:56:37;101284.06;;;14.13;100.00
73101;BME280;61288;53.446;-2.266;2023-07-24T11:59:13;101269.03;;;14.18;100.00
73101;BME280;61288;53.446;-2.266;2023-07-24T12:01:45;101267.88;;;14.25;100.00
73101;BME280;61288;53.446;-2.266;2023-07-24T12:04:14;101259.13;;;14.26;100.00
73101;BME280;61288;53.446;-2.266;2023-07-24T12:06:40;101268.34;;;14.34;100.00
73101;BME280;61288;53.446;-2.266;2023-07-24T12:09:06;101268.41;;;14.32;100.00
73101;BME280;61288;53.446;-2.266;2023-07-24T12:11:33;101247.25;;;14.38;100.00
73101;BME280;61288;53.446;-2.266;2023-07-24T12:13:59;101236.59;;;14.43;100.00
73101;BME280;61288;53.446;-2.266;2023-07-24T12:16:24;101246.59;;;14.52;100.00
73101;BME280;61288;53.446;-2.266;2023-07-24T12:18:50;101238.31;;;14.62;100.00
73101;BME280;61288;53.446;-2.266;2023-07-24T12:21:15;101228.41;;;14.68;100.00
73101;BME280;61288;53.446;-2.266;2023-07-24T12:23:41;101203.19;;;14.69;100.00
73101;BME280;61288;53.446;-2.266;2023-07-24T12:26:06;101219.47;;;14.74;100.00
73101;BME280;61288;53.446;-2.266;2023-07-24T12:28:32;101251.63;;;14.75;100.00
73101;BME280;61288;53.446;-2.266;2023-07-24T12:30:58;101242.25;;;14.70;100.00
73101;BME280;61288;53.446;-2.266;2023-07-24T12:33:23;101227.81;;;14.63;100.00